Time;durP1;ratioP1;P1;durP2;ratioP2;P2;SDS_P1;SDS_P2;PMS_P1;PMS_P2;Temp;Humidity;BMP_temperature;BMP_pressure;BME280_temperature;BME280_humidity;BME280_pressure;Samples;Min_cycle;Max_cycle;Signal;HPM_P1;HPM_P2
2021/07/14 00:00:26;;;;;;;12.13;7.18;;;26.70;58.40;;;;;;5049232;28;20033;-76
2021/07/14 00:02:53;;;;;;;11.25;8.57;;;26.70;58.50;;;;;;5048790;28;20053;-78
2021/07/14 00:05:20;;;;;;;9.05;7.20;;;26.60;58.30;;;;;;5049354;28;20029;-79
2021/07/14 00:07:47;;;;;;;12.55;7.72;;;26.70;58.40;;;;;;5049143;28;20059;-79
2021/07/14 00:10:16;;;;;;;13.63;7.38;;;26.60;58.50;;;;;;5048516;28;20544;-78
2021/07/14 00:12:49;;;;;;;13.05;7.47;;;26.60;58.80;;;;;;5049001;28;20497;-80
2021/07/14 00:23:31;;;;;;;11.68;8.75;;;26.40;59.40;;;;;;5048893;28;19915;-80
2021/07/14 00:25:57;;;;;;;17.17;8.43;;;26.40;59.80;;;;;;5048290;28;20104;-79
2021/07/14 00:28:24;;;;;;;13.77;8.13;;;26.40;59.20;;;;;;5048607;28;20029;-79
2021/07/14 00:30:54;;;;;;;24.25;7.80;;;26.40;59.00;;;;;;5030727;28;20025;-80
2021/07/14 00:33:20;;;;;;;10.13;7.13;;;26.50;59.00;;;;;;5030887;28;20025;-80
2021/07/14 00:35:45;;;;;;;13.45;9.07;;;26.40;59.20;;;;;;5048865;28;20028;-79
2021/07/14 00:38:12;;;;;;;9.90;7.85;;;26.40;59.30;;;;;;5048118;28;20049;-79
2021/07/14 00:40:38;;;;;;;15.15;8.48;;;26.30;59.20;;;;;;5030735;28;20083;-81
2021/07/14 00:43:04;;;;;;;15.95;8.88;;;26.30;59.80;;;;;;5048538;28;20048;-80
2021/07/14 00:45:30;;;;;;;16.27;8.75;;;26.20;59.80;;;;;;5030795;28;20025;-80
2021/07/14 00:47:56;;;;;;;13.18;8.18;;;26.20;60.10;;;;;;5048220;28;20339;-80
2021/07/14 00:50:23;;;;;;;16.90;8.88;;;26.20;60.90;;;;;;5048857;28;20029;-80
2021/07/14 00:52:48;;;;;;;10.50;8.13;;;26.10;60.60;;;;;;5048032;28;20025;-80
2021/07/14 00:55:14;;;;;;;12.48;8.20;;;26.10;60.60;;;;;;5047794;28;20039;-80
2021/07/14 00:57:40;;;;;;;11.38;7.68;;;26.00;60.80;;;;;;5029839;28;20033;-79
2021/07/14 01:00:08;;;;;;;12.60;7.90;;;26.00;60.60;;;;;;5030756;28;20036;-78
2021/07/14 01:02:34;;;;;;;16.08;8.77;;;26.00;60.40;;;;;;5029823;28;20116;-79
2021/07/14 01:05:05;;;;;;;13.05;8.07;;;26.10;60.70;;;;;;5030385;28;20063;-81
2021/07/14 01:07:43;;;;;;;17.60;8.05;;;26.00;60.70;;;;;;5029827;28;20079;-79
2021/07/14 01:10:13;;;;;;;13.52;8.35;;;25.90;61.40;;;;;;5029557;28;20098;-79
2021/07/14 01:12:44;;;;;;;16.17;8.52;;;25.80;61.40;;;;;;5048823;28;20037;-81
2021/07/14 01:15:18;;;;;;;13.13;8.07;;;25.80;61.80;;;;;;5030411;28;20104;-81
2021/07/14 01:18:01;;;;;;;13.48;7.60;;;25.70;62.10;;;;;;5048173;28;20486;-80
2021/07/14 01:20:45;;;;;;;12.93;8.52;;;25.60;62.50;;;;;;5047879;28;20036;-78
2021/07/14 01:23:44;;;;;;;21.58;8.65;;;25.50;62.90;;;;;;5047544;28;20029;-78
2021/07/14 01:26:28;;;;;;;11.40;8.43;;;25.50;63.00;;;;;;5029741;28;20413;-78
2021/07/14 01:28:56;;;;;;;13.90;8.60;;;25.50;62.80;;;;;;5047273;28;20043;-78
2021/07/14 01:31:23;;;;;;;13.45;9.10;;;25.40;62.80;;;;;;5046717;28;20040;-78
2021/07/14 01:33:56;;;;;;;11.65;8.38;;;25.40;63.20;;;;;;5029396;28;20021;-77
2021/07/14 01:36:23;;;;;;;13.10;8.77;;;25.40;63.50;;;;;;5034987;28;20460;-78
2021/07/14 01:38:49;;;;;;;13.68;7.57;;;25.30;63.10;;;;;;5064483;28;20036;-78
2021/07/14 01:41:17;;;;;;;13.35;8.65;;;25.30;62.80;;;;;;5065844;28;20081;-78
2021/07/14 01:43:52;;;;;;;18.35;8.65;;;25.40;62.40;;;;;;5065849;28;20404;-77
2021/07/14 01:46:19;;;;;;;8.82;7.60;;;25.50;62.30;;;;;;5067151;28;20468;-77
2021/07/14 01:48:48;;;;;;;11.95;8.02;;;25.50;62.20;;;;;;5065856;28;20111;-78
2021/07/14 01:51:14;;;;;;;9.52;7.55;;;25.50;62.40;;;;;;5065760;28;20029;-78
2021/07/14 01:53:43;;;;;;;11.10;8.50;;;25.50;62.60;;;;;;5065552;28;20054;-78
2021/07/14 01:56:11;;;;;;;10.70;7.57;;;25.50;62.30;;;;;;5065250;28;20120;-78
2021/07/14 01:58:39;;;;;;;15.02;7.45;;;25.40;62.60;;;;;;5066835;28;20036;-77
2021/07/14 02:01:10;;;;;;;12.25;8.10;;;25.40;62.40;;;;;;5066807;28;20497;-77
2021/07/14 02:06:04;;;;;;;16.17;7.43;;;25.50;62.40;;;;;;5066956;28;20029;-79
2021/07/14 02:08:30;;;;;;;11.73;8.63;;;25.50;62.10;;;;;;5065856;28;20074;-81
2021/07/14 02:10:58;;;;;;;9.10;7.60;;;25.50;62.20;;;;;;5066076;28;20493;-81
2021/07/14 02:13:29;;;;;;;14.52;7.88;;;25.50;62.40;;;;;;5067297;28;20543;-78
2021/07/14 02:15:58;;;;;;;12.60;8.23;;;25.40;62.30;;;;;;5064914;28;20128;-79
2021/07/14 02:18:28;;;;;;;11.02;7.78;;;25.40;62.20;;;;;;5065078;28;20594;-79
2021/07/14 02:20:57;;;;;;;18.40;7.90;;;25.40;62.50;;;;;;5065267;28;20029;-78
2021/07/14 02:23:23;;;;;;;15.63;7.75;;;25.40;62.40;;;;;;5066450;28;20166;-79
2021/07/14 02:25:49;;;;;;;11.93;8.23;;;25.40;62.60;;;;;;5065247;28;20489;-80
2021/07/14 02:28:14;;;;;;;11.45;7.45;;;25.40;62.90;;;;;;5066754;28;20109;-80
2021/07/14 02:30:40;;;;;;;17.67;8.90;;;25.40;63.30;;;;;;5066306;28;20470;-80
2021/07/14 02:33:14;;;;;;;12.23;7.88;;;25.40;63.30;;;;;;5066400;28;20036;-79
2021/07/14 02:35:45;;;;;;;14.50;8.05;;;25.40;63.20;;;;;;5065299;28;20036;-80
2021/07/14 02:38:16;;;;;;;17.45;8.52;;;25.40;62.80;;;;;;5046013;28;20048;-80
2021/07/14 02:41:17;;;;;;;12.27;7.85;;;25.40;62.80;;;;;;5028360;28;20067;-79
2021/07/14 02:43:51;;;;;;;14.02;8.13;;;25.40;63.40;;;;;;5017192;28;20048;-85
2021/07/14 02:46:26;;;;;;;12.95;7.40;;;25.40;62.80;;;;;;5011374;28;20025;-83
2021/07/14 02:48:55;;;;;;;17.50;7.70;;;25.40;62.40;;;;;;5010067;28;20030;-83
2021/07/14 02:51:23;;;;;;;11.90;7.70;;;25.40;63.20;;;;;;5010719;28;20437;-84
2021/07/14 02:53:52;;;;;;;14.90;7.22;;;25.50;61.60;;;;;;5028233;28;20520;-83
2021/07/14 02:56:21;;;;;;;11.25;7.88;;;25.60;61.50;;;;;;5028098;28;20240;-81
2021/07/14 02:58:52;;;;;;;10.77;7.50;;;25.60;61.40;;;;;;5028121;28;20046;-79
2021/07/14 03:01:19;;;;;;;13.82;6.90;;;25.60;61.50;;;;;;5008600;28;20030;-79
2021/07/14 03:03:47;;;;;;;11.75;7.63;;;25.60;60.80;;;;;;5008280;28;20494;-80
2021/07/14 03:06:13;;;;;;;19.15;8.15;;;25.60;60.70;;;;;;5008842;28;20026;-79
2021/07/14 03:08:43;;;;;;;10.18;6.72;;;25.70;60.70;;;;;;5025546;28;20031;-79
2021/07/14 03:11:10;;;;;;;10.25;7.93;;;25.80;60.20;;;;;;5008500;28;20022;-76
2021/07/14 03:13:38;;;;;;;13.02;7.85;;;25.80;60.70;;;;;;5008228;28;20041;-80
2021/07/14 03:16:05;;;;;;;12.02;8.18;;;25.80;61.00;;;;;;5026177;28;20057;-79
2021/07/14 03:18:32;;;;;;;17.27;8.52;;;25.80;61.40;;;;;;5025806;28;20429;-79
2021/07/14 03:21:00;;;;;;;15.48;7.53;;;25.80;60.90;;;;;;5008286;28;20053;-79
2021/07/14 03:23:28;;;;;;;11.60;8.38;;;25.90;60.40;;;;;;5008151;28;20572;-79
2021/07/14 03:25:58;;;;;;;11.65;8.75;;;26.10;60.10;;;;;;5008321;28;20636;-79
2021/07/14 03:28:26;;;;;;;16.60;8.05;;;26.10;60.00;;;;;;5025875;28;20037;-79
2021/07/14 03:30:55;;;;;;;11.82;7.88;;;26.10;60.40;;;;;;5025854;28;20018;-79
2021/07/14 03:33:20;;;;;;;11.77;8.18;;;26.00;60.40;;;;;;5008364;28;20060;-78
2021/07/14 03:35:48;;;;;;;10.25;8.02;;;26.00;60.60;;;;;;5008236;28;20486;-78
2021/07/14 03:38:15;;;;;;;10.65;7.50;;;26.10;60.30;;;;;;5044015;28;20049;-79
2021/07/14 03:40:42;;;;;;;11.48;7.40;;;26.10;60.10;;;;;;5043140;28;20075;-80
2021/07/14 03:43:09;;;;;;;11.18;7.18;;;26.10;60.10;;;;;;5032302;28;20100;-80
2021/07/14 03:45:38;;;;;;;14.40;7.53;;;26.10;59.70;;;;;;5023334;28;20037;-79
2021/07/14 03:48:04;;;;;;;14.90;7.47;;;26.20;60.40;;;;;;5040698;28;20033;-81
2021/07/14 03:50:31;;;;;;;13.82;8.50;;;26.20;60.00;;;;;;5022946;28;20413;-80
2021/07/14 03:52:57;;;;;;;13.23;8.40;;;26.20;59.60;;;;;;5022588;28;20043;-80
2021/07/14 03:55:23;;;;;;;8.30;7.45;;;26.30;59.50;;;;;;5023388;28;20028;-81
2021/07/14 03:57:49;;;;;;;10.23;8.10;;;26.30;59.60;;;;;;5041211;28;20071;-82
2021/07/14 04:00:16;;;;;;;16.15;8.48;;;26.30;58.90;;;;;;5022711;28;20044;-81
2021/07/14 04:02:44;;;;;;;10.52;7.65;;;26.40;58.90;;;;;;5044009;28;20049;-81
2021/07/14 04:05:12;;;;;;;11.57;7.95;;;26.30;59.30;;;;;;5043284;28;20033;-81
2021/07/14 04:07:41;;;;;;;18.23;7.88;;;26.30;59.70;;;;;;5011305;28;20086;-82
2021/07/14 04:10:07;;;;;;;10.60;6.95;;;26.30;60.00;;;;;;5044040;28;20036;-80
2021/07/14 04:12:33;;;;;;;13.43;8.73;;;26.30;59.90;;;;;;5044005;28;20029;-77
2021/07/14 04:14:59;;;;;;;10.25;7.50;;;26.40;59.50;;;;;;5027569;28;20103;-79
2021/07/14 04:17:25;;;;;;;16.77;8.18;;;26.50;59.20;;;;;;5027318;28;20028;-80
2021/07/14 04:19:51;;;;;;;16.73;7.95;;;26.50;58.80;;;;;;5027587;28;20033;-80
2021/07/14 04:22:16;;;;;;;13.93;8.05;;;26.60;58.40;;;;;;5026048;28;20406;-79
2021/07/14 04:24:42;;;;;;;7.82;7.03;;;26.70;58.10;;;;;;5045270;28;20040;-80
2021/07/14 04:27:10;;;;;;;14.25;8.02;;;26.80;58.60;;;;;;5027124;28;20025;-79
2021/07/14 04:29:35;;;;;;;12.50;7.90;;;26.90;58.40;;;;;;5027039;28;20064;-79
2021/07/14 04:32:01;;;;;;;12.65;7.70;;;27.10;58.20;;;;;;5026868;28;20087;-80
2021/07/14 04:34:28;;;;;;;15.98;8.20;;;27.10;58.70;;;;;;5057027;28;20032;-80
2021/07/14 04:36:54;;;;;;;12.63;8.63;;;27.10;57.50;;;;;;5042487;28;20055;-80
2021/07/14 04:39:19;;;;;;;17.25;7.70;;;27.10;57.20;;;;;;5052811;28;20029;-79
2021/07/14 04:41:45;;;;;;;15.18;7.70;;;27.10;57.20;;;;;;5057750;28;20048;-79
2021/07/14 04:44:12;;;;;;;18.13;7.47;;;27.30;57.10;;;;;;5063409;28;20493;-78
2021/07/14 04:46:39;;;;;;;15.32;7.40;;;27.30;57.00;;;;;;5063103;28;20024;-80
2021/07/14 04:49:05;;;;;;;12.07;7.00;;;27.20;57.00;;;;;;5064817;28;20024;-79
2021/07/14 04:51:31;;;;;;;17.63;9.23;;;27.30;56.10;;;;;;5062920;28;20086;-78
2021/07/14 04:53:57;;;;;;;11.30;7.57;;;27.30;57.00;;;;;;5065046;28;20028;-80
2021/07/14 04:56:23;;;;;;;11.23;7.35;;;27.40;57.00;;;;;;5064811;28;20074;-77
2021/07/14 04:58:48;;;;;;;15.05;7.60;;;27.50;57.20;;;;;;5064718;28;20037;-77
2021/07/14 05:01:16;;;;;;;9.95;7.82;;;27.60;57.00;;;;;;5062740;28;20364;-79
2021/07/14 05:03:46;;;;;;;12.20;7.57;;;27.80;57.10;;;;;;5064516;28;20040;-79
2021/07/14 05:06:18;;;;;;;9.70;8.23;;;27.80;57.00;;;;;;5063353;28;20033;-79
2021/07/14 05:08:44;;;;;;;10.13;7.22;;;28.00;57.00;;;;;;5063151;28;20028;-78
2021/07/14 05:11:10;;;;;;;15.15;9.32;;;28.20;56.70;;;;;;5064181;28;20029;-80
2021/07/14 05:13:36;;;;;;;13.70;7.55;;;28.40;55.20;;;;;;5062416;28;20501;-79
2021/07/14 05:16:02;;;;;;;9.30;7.35;;;28.50;55.30;;;;;;5062620;28;20036;-79
2021/07/14 05:18:27;;;;;;;16.13;7.53;;;28.50;55.80;;;;;;5062851;28;20028;-78
2021/07/14 05:20:53;;;;;;;17.02;7.90;;;28.50;55.10;;;;;;5064405;28;20036;-79
2021/07/14 05:23:19;;;;;;;9.65;7.78;;;28.50;53.80;;;;;;5061989;28;20036;-80
2021/07/14 05:25:44;;;;;;;10.57;8.27;;;28.50;54.30;;;;;;5062739;28;20521;-79
2021/07/14 05:28:11;;;;;;;18.67;8.07;;;28.60;54.60;;;;;;5062427;28;20888;-79
2021/07/14 05:30:40;;;;;;;14.13;7.03;;;28.60;54.90;;;;;;5063596;28;20501;-79
2021/07/14 05:33:06;;;;;;;9.50;7.07;;;28.90;53.70;;;;;;5063975;28;20077;-80
2021/07/14 05:35:32;;;;;;;19.80;8.18;;;29.00;53.00;;;;;;5063235;28;20127;-80
2021/07/14 05:37:57;;;;;;;9.77;7.25;;;29.20;53.00;;;;;;5045738;28;20414;-80
2021/07/14 05:40:23;;;;;;;8.57;6.88;;;29.30;53.10;;;;;;5046788;28;20078;-80
2021/07/14 05:42:49;;;;;;;12.75;7.45;;;29.30;53.30;;;;;;5046731;28;20075;-80
2021/07/14 05:45:15;;;;;;;20.02;7.97;;;29.60;52.80;;;;;;5029185;28;20078;-80
2021/07/14 05:47:41;;;;;;;11.02;7.13;;;29.70;51.30;;;;;;5029397;28;20784;-80
2021/07/14 05:50:08;;;;;;;10.85;7.97;;;29.60;52.10;;;;;;5046747;28;20037;-80
2021/07/14 05:52:34;;;;;;;11.65;6.75;;;29.80;52.00;;;;;;5046652;28;20021;-80
2021/07/14 05:54:59;;;;;;;11.73;7.90;;;30.10;51.40;;;;;;5028602;28;20409;-80
2021/07/14 05:57:25;;;;;;;11.52;6.28;;;30.30;50.20;;;;;;5028979;28;20025;-78
2021/07/14 05:59:51;;;;;;;13.70;6.43;;;30.50;47.60;;;;;;5028608;28;20086;-78
2021/07/14 06:02:17;;;;;;;9.70;6.45;;;31.10;47.60;;;;;;5029173;28;20036;-79
2021/07/14 06:04:42;;;;;;;14.43;7.80;;;31.60;46.40;;;;;;5028395;28;20036;-77
2021/07/14 06:07:08;;;;;;;18.88;7.53;;;31.90;45.80;;;;;;5028817;28;20067;-78
2021/07/14 06:09:34;;;;;;;13.40;5.85;;;32.10;45.30;;;;;;5028700;28;20021;-78
2021/07/14 06:12:00;;;;;;;14.40;6.07;;;32.60;43.50;;;;;;5029214;28;20029;-79
2021/07/14 06:14:26;;;;;;;12.88;6.28;;;33.00;42.70;;;;;;5028664;28;20108;-80
2021/07/14 06:16:52;;;;;;;11.80;6.97;;;33.40;41.60;;;;;;5046711;28;20028;-80
2021/07/14 06:19:18;;;;;;;11.07;6.50;;;33.20;42.70;;;;;;5046246;28;20041;-80
2021/07/14 06:21:45;;;;;;;11.85;5.47;;;33.80;41.20;;;;;;5046223;28;20082;-79
2021/07/14 06:24:10;;;;;;;13.85;5.88;;;34.30;40.10;;;;;;5028295;28;20517;-80
2021/07/14 06:26:36;;;;;;;8.25;5.13;;;34.90;38.30;;;;;;5046428;28;20460;-80
2021/07/14 06:29:02;;;;;;;13.52;5.75;;;35.10;38.40;;;;;;5046370;28;20033;-79
2021/07/14 06:31:28;;;;;;;10.38;5.55;;;35.60;37.30;;;;;;5028226;28;20135;-80
2021/07/14 06:33:53;;;;;;;12.15;5.47;;;35.60;36.70;;;;;;5028551;28;20671;-78
2021/07/14 06:36:19;;;;;;;13.15;5.80;;;35.70;35.70;;;;;;5045840;28;20194;-78
2021/07/14 06:38:45;;;;;;;12.65;6.13;;;35.60;35.40;;;;;;5046655;28;20047;-78
2021/07/14 06:41:12;;;;;;;9.40;4.93;;;35.70;35.70;;;;;;5028636;28;20398;-78
2021/07/14 06:43:49;;;;;;;18.40;5.40;;;35.80;36.20;;;;;;5028338;28;20029;-78
2021/07/14 06:46:17;;;;;;;7.53;5.50;;;36.10;35.00;;;;;;5046036;28;20027;-78
2021/07/14 06:48:43;;;;;;;10.80;6.07;;;35.90;35.70;;;;;;5028468;28;20035;-81
2021/07/14 06:51:10;;;;;;;10.77;6.30;;;36.10;36.50;;;;;;5045460;28;20040;-80
2021/07/14 06:53:35;;;;;;;9.02;6.03;;;36.00;36.70;;;;;;5028791;28;20037;-80
2021/07/14 06:56:01;;;;;;;11.82;5.60;;;36.10;37.00;;;;;;5028357;28;20033;-80
2021/07/14 06:58:28;;;;;;;13.13;5.80;;;36.50;35.10;;;;;;5045873;28;20041;-81
2021/07/14 07:00:55;;;;;;;16.77;6.25;;;36.70;34.90;;;;;;5046094;28;20029;-80
2021/07/14 07:03:21;;;;;;;11.57;6.32;;;37.00;34.70;;;;;;5027789;28;20547;-80
2021/07/14 07:05:48;;;;;;;12.27;6.10;;;36.80;35.00;;;;;;5045999;28;20059;-81
2021/07/14 07:08:14;;;;;;;10.15;5.30;;;36.80;35.50;;;;;;5045999;28;20025;-80
2021/07/14 07:10:41;;;;;;;18.45;6.00;;;36.70;34.90;;;;;;5028009;28;20041;-80
2021/07/14 07:13:10;;;;;;;11.82;5.53;;;36.60;35.10;;;;;;5046120;28;20330;-82
2021/07/14 07:15:36;;;;;;;10.63;5.95;;;36.60;35.10;;;;;;5028182;28;20470;-80
2021/07/14 07:18:01;;;;;;;12.63;6.18;;;36.40;35.60;;;;;;5027768;28;20075;-81
2021/07/14 07:20:29;;;;;;;16.17;6.25;;;36.70;34.30;;;;;;5045262;28;20239;-80
2021/07/14 07:22:54;;;;;;;12.57;5.93;;;36.80;35.20;;;;;;5046066;28;20052;-81
2021/07/14 07:25:20;;;;;;;10.70;5.97;;;36.50;35.70;;;;;;5028245;28;20029;-79
2021/07/14 07:27:46;;;;;;;13.00;5.57;;;36.70;35.90;;;;;;5027758;28;20497;-81
2021/07/14 07:30:12;;;;;;;11.27;5.72;;;36.40;35.10;;;;;;5028109;28;20111;-81
2021/07/14 07:32:38;;;;;;;12.07;5.65;;;36.50;35.30;;;;;;5028331;28;20033;-80
2021/07/14 07:35:05;;;;;;;9.27;5.28;;;36.50;35.50;;;;;;5027048;28;20029;-80
2021/07/14 07:37:31;;;;;;;11.98;5.95;;;36.80;34.80;;;;;;5055658;28;20048;-80
2021/07/14 07:39:57;;;;;;;16.42;6.20;;;36.60;35.90;;;;;;5068077;28;20105;-81
2021/07/14 07:42:24;;;;;;;15.48;5.70;;;36.80;35.50;;;;;;5069882;28;20025;-80
2021/07/14 07:44:50;;;;;;;8.20;5.78;;;36.70;35.20;;;;;;5068326;28;20101;-81
2021/07/14 07:47:16;;;;;;;10.90;5.72;;;36.80;35.30;;;;;;5069566;28;20482;-81
2021/07/14 07:49:45;;;;;;;14.70;5.43;;;37.00;35.50;;;;;;5067232;28;20033;-82
2021/07/14 07:52:15;;;;;;;8.15;5.32;;;37.00;35.30;;;;;;5069458;28;20017;-81
2021/07/14 07:54:41;;;;;;;13.05;5.65;;;37.00;35.10;;;;;;5059782;28;20032;-80
2021/07/14 07:57:08;;;;;;;13.80;6.30;;;37.10;34.90;;;;;;5047530;28;20566;-79
2021/07/14 07:59:35;;;;;;;11.48;5.82;;;37.20;35.40;;;;;;5049153;28;20044;-81
2021/07/14 08:02:02;;;;;;;18.35;5.88;;;36.80;36.20;;;;;;5048716;28;20129;-81
2021/07/14 08:04:28;;;;;;;20.80;6.22;;;36.90;36.50;;;;;;5047350;28;20029;-81
2021/07/14 08:06:54;;;;;;;14.15;5.63;;;37.00;35.80;;;;;;5047893;28;20071;-80
2021/07/14 08:09:19;;;;;;;10.70;6.25;;;36.80;36.70;;;;;;5048122;28;20116;-80
2021/07/14 08:11:46;;;;;;;15.05;5.43;;;37.10;35.50;;;;;;5048434;28;20029;-79
2021/07/14 08:14:13;;;;;;;14.57;5.80;;;37.20;35.80;;;;;;5047269;28;20029;-80
2021/07/14 08:16:39;;;;;;;20.33;5.32;;;37.30;35.60;;;;;;5048193;28;20104;-81
2021/07/14 08:19:04;;;;;;;8.88;5.28;;;37.50;34.80;;;;;;5048431;28;20124;-79
2021/07/14 08:21:30;;;;;;;11.70;5.68;;;37.60;35.40;;;;;;5047530;28;20115;-81
2021/07/14 08:23:56;;;;;;;13.05;7.47;;;37.90;34.70;;;;;;5047255;28;20094;-80
2021/07/14 08:26:21;;;;;;;12.13;6.28;;;38.10;34.80;;;;;;5047121;28;20128;-79
2021/07/14 08:28:47;;;;;;;10.27;5.75;;;38.20;35.30;;;;;;5047899;28;20493;-80
2021/07/14 08:31:13;;;;;;;11.68;6.20;;;37.90;34.80;;;;;;5047003;28;20135;-80
2021/07/14 08:33:39;;;;;;;18.48;6.43;;;37.40;35.20;;;;;;5047222;28;20124;-80
2021/07/14 08:36:05;;;;;;;10.88;6.00;;;37.30;35.80;;;;;;5044996;28;20440;-79
2021/07/14 08:38:30;;;;;;;12.50;6.00;;;37.40;36.50;;;;;;5010277;28;20566;-80
2021/07/14 08:40:58;;;;;;;20.27;6.40;;;37.60;36.30;;;;;;5028507;28;20104;-80
2021/07/14 08:43:29;;;;;;;10.52;6.38;;;37.60;36.60;;;;;;5010347;28;20078;-79
2021/07/14 08:45:57;;;;;;;21.80;6.03;;;37.60;36.10;;;;;;5028004;28;20038;-80
2021/07/14 08:48:22;;;;;;;9.35;5.40;;;37.70;36.30;;;;;;5027585;28;20079;-80
2021/07/14 08:50:52;;;;;;;14.35;6.03;;;37.60;35.90;;;;;;5028104;28;20116;-79
2021/07/14 08:53:19;;;;;;;8.18;5.15;;;37.20;36.50;;;;;;5009336;28;20033;-78
2021/07/14 08:55:47;;;;;;;11.35;6.38;;;37.10;37.00;;;;;;5007582;28;20045;-78
2021/07/14 08:58:14;;;;;;;12.60;6.47;;;37.10;37.30;;;;;;5026907;28;20104;-78
2021/07/14 09:00:40;;;;;;;11.05;5.80;;;36.90;37.10;;;;;;5009256;28;20057;-79
2021/07/14 09:03:06;;;;;;;10.23;5.82;;;37.10;36.30;;;;;;5025674;28;20378;-79
2021/07/14 09:05:32;;;;;;;15.32;5.93;;;37.40;36.20;;;;;;5026258;28;20510;-79
2021/07/14 09:07:58;;;;;;;10.77;5.68;;;37.60;36.50;;;;;;5008438;28;20045;-78
2021/07/14 09:10:24;;;;;;;13.57;6.25;;;37.70;36.40;;;;;;5039483;28;20087;-79
2021/07/14 09:12:55;;;;;;;13.40;5.30;;;37.80;36.00;;;;;;5040661;28;20340;-79
2021/07/14 09:15:21;;;;;;;14.82;6.28;;;37.90;34.70;;;;;;5028852;28;20048;-79
2021/07/14 09:17:48;;;;;;;10.57;5.60;;;37.70;35.70;;;;;;5028149;28;20036;-78
2021/07/14 09:20:19;;;;;;;11.85;5.40;;;38.00;35.70;;;;;;5028327;28;20041;-78
2021/07/14 09:22:46;;;;;;;11.45;5.65;;;38.10;34.80;;;;;;5027504;28;20041;-78
2021/07/14 09:25:17;;;;;;;16.60;5.82;;;38.00;35.30;;;;;;5028502;28;20052;-79
2021/07/14 09:27:53;;;;;;;13.23;5.57;;;37.90;35.70;;;;;;5027890;28;20048;-78
2021/07/14 09:30:21;;;;;;;16.35;6.05;;;37.60;35.60;;;;;;5027745;28;20036;-78
2021/07/14 09:33:03;;;;;;;9.40;5.20;;;37.50;36.20;;;;;;5027513;28;20045;-78
2021/07/14 09:35:35;;;;;;;13.90;5.70;;;37.60;36.00;;;;;;5028768;28;20036;-78
2021/07/14 09:38:10;;;;;;;11.32;5.97;;;37.80;36.50;;;;;;5043097;28;20052;-79
2021/07/14 09:40:37;;;;;;;15.77;5.53;;;38.00;36.20;;;;;;5045067;28;20048;-79
2021/07/14 09:43:12;;;;;;;14.70;5.72;;;38.00;35.80;;;;;;5046401;28;20037;-78
2021/07/14 09:45:44;;;;;;;;;;;38.10;35.40;;;;;;5041311;28;20528;-79
2021/07/14 09:48:11;;;;;;;9.43;4.13;;;38.30;34.00;;;;;;5032128;28;19912;-79
2021/07/14 09:50:44;;;;;;;15.65;5.07;;;38.30;33.80;;;;;;5047256;28;20543;-79
2021/07/14 09:53:12;;;;;;;10.88;6.15;;;38.60;34.90;;;;;;5043541;28;20072;-79
2021/07/14 09:55:39;;;;;;;11.43;5.28;;;38.90;34.70;;;;;;5045188;28;20039;-78
2021/07/14 09:58:10;;;;;;;10.45;4.68;;;39.00;34.40;;;;;;5038174;28;20056;-79
2021/07/14 10:00:44;;;;;;;14.40;6.30;;;38.90;32.80;;;;;;5043634;28;20041;-79
2021/07/14 10:03:18;;;;;;;16.17;5.15;;;38.90;31.90;;;;;;5044334;28;20570;-79
2021/07/14 10:05:44;;;;;;;12.23;4.88;;;38.80;31.20;;;;;;5044511;28;20066;-79
2021/07/14 10:08:21;;;;;;;7.30;4.18;;;38.80;31.40;;;;;;5044565;28;20036;-78
2021/07/14 10:10:49;;;;;;;21.92;5.22;;;38.90;31.20;;;;;;5045686;28;20040;-78
2021/07/14 10:13:16;;;;;;;16.98;5.13;;;38.90;31.20;;;;;;5044348;28;20029;-79
2021/07/14 10:15:42;;;;;;;16.38;5.00;;;38.80;31.60;;;;;;5039163;28;20045;-78
2021/07/14 10:18:12;;;;;;;13.00;5.38;;;38.60;31.60;;;;;;5044926;28;20040;-79
2021/07/14 10:20:43;;;;;;;11.93;5.10;;;38.50;31.70;;;;;;5044942;28;20063;-79
2021/07/14 10:23:13;;;;;;;11.38;4.93;;;38.40;31.50;;;;;;5046391;28;20025;-79
2021/07/14 10:25:41;;;;;;;11.30;5.57;;;37.90;32.50;;;;;;5044872;28;20029;-80
2021/07/14 10:28:09;;;;;;;10.55;4.72;;;37.60;32.20;;;;;;5046654;28;20520;-80
2021/07/14 10:30:37;;;;;;;18.27;5.13;;;37.30;33.00;;;;;;5046659;28;20436;-78
2021/07/14 10:33:03;;;;;;;19.10;5.05;;;37.00;33.80;;;;;;5045603;28;20048;-79
2021/07/14 10:35:34;;;;;;;11.80;4.57;;;36.60;34.40;;;;;;5046520;28;20501;-78
2021/07/14 10:38:02;;;;;;;17.98;6.30;;;36.60;34.30;;;;;;5044894;28;20049;-79
2021/07/14 10:40:28;;;;;;;10.95;4.93;;;36.60;34.70;;;;;;5046087;28;20021;-79
2021/07/14 10:42:55;;;;;;;9.05;5.10;;;36.60;34.40;;;;;;5045086;28;20032;-78
2021/07/14 10:45:21;;;;;;;15.90;5.15;;;36.60;34.20;;;;;;5045233;28;20044;-79
2021/07/14 10:47:48;;;;;;;9.95;4.75;;;36.60;34.60;;;;;;5044292;28;20037;-79
2021/07/14 10:50:17;;;;;;;15.60;5.38;;;36.70;34.40;;;;;;5045011;28;20025;-79
2021/07/14 10:52:44;;;;;;;14.25;4.43;;;36.60;34.20;;;;;;5044544;28;20370;-80
2021/07/14 10:55:15;;;;;;;16.95;4.97;;;36.70;35.90;;;;;;5046129;28;20496;-79
2021/07/14 10:57:41;;;;;;;13.90;4.90;;;37.00;33.90;;;;;;5044749;28;20120;-79
2021/07/14 11:00:09;;;;;;;10.82;4.85;;;37.10;33.80;;;;;;5044516;28;20029;-79
2021/07/14 11:02:48;;;;;;;14.15;5.38;;;37.10;34.50;;;;;;5044264;28;20021;-79
2021/07/14 11:05:15;;;;;;;12.60;4.82;;;37.20;34.30;;;;;;5045791;28;20061;-79
2021/07/14 11:07:43;;;;;;;11.93;4.53;;;37.20;34.00;;;;;;5046026;28;20040;-79
2021/07/14 11:10:21;;;;;;;12.75;5.10;;;37.30;34.20;;;;;;5046858;28;20033;-78
2021/07/14 11:12:46;;;;;;;19.38;5.43;;;37.10;34.40;;;;;;5048673;28;20120;-80
2021/07/14 11:15:12;;;;;;;21.70;5.25;;;36.80;35.00;;;;;;5048516;28;20124;-76
2021/07/14 11:17:38;;;;;;;17.20;4.85;;;36.70;35.60;;;;;;5048269;28;20033;-80
2021/07/14 11:20:14;;;;;;;14.20;5.40;;;36.80;36.10;;;;;;5049792;28;20029;-80
2021/07/14 11:22:41;;;;;;;24.55;5.72;;;36.70;35.40;;;;;;5048408;28;20051;-80
2021/07/14 11:25:09;;;;;;;10.77;5.40;;;36.80;36.00;;;;;;5049850;28;20033;-80
2021/07/14 11:27:34;;;;;;;18.83;5.07;;;36.70;35.70;;;;;;5048605;28;20120;-80
2021/07/14 11:30:03;;;;;;;14.15;5.00;;;36.60;35.20;;;;;;5048325;28;20119;-80
2021/07/14 11:32:34;;;;;;;19.42;5.32;;;36.10;35.50;;;;;;5049443;28;20025;-80
2021/07/14 11:35:09;;;;;;;9.73;4.82;;;35.80;36.40;;;;;;5048208;28;20547;-80
2021/07/14 11:37:37;;;;;;;21.33;5.82;;;35.80;37.80;;;;;;5064182;28;20076;-81
2021/07/14 11:40:21;;;;;;;20.38;5.95;;;36.00;37.10;;;;;;5069201;28;20032;-80
2021/07/14 11:43:09;;;;;;;15.85;4.63;;;36.20;36.50;;;;;;5069059;28;20040;-80
2021/07/14 11:45:36;;;;;;;17.08;5.13;;;36.30;37.00;;;;;;5054918;28;20035;-80
2021/07/14 11:48:03;;;;;;;20.73;5.07;;;36.40;36.00;;;;;;5050599;28;20036;-79
2021/07/14 11:50:49;;;;;;;12.55;5.10;;;36.50;36.70;;;;;;5069185;28;20527;-80
2021/07/14 11:53:27;;;;;;;34.78;5.55;;;36.60;36.30;;;;;;5051418;28;20108;-79
2021/07/14 11:56:17;;;;;;;9.25;4.90;;;36.50;36.20;;;;;;5050840;28;20532;-80
2021/07/14 11:58:43;;;;;;;22.25;5.63;;;36.50;36.00;;;;;;5051106;28;20036;-80
2021/07/14 12:01:21;;;;;;;12.93;5.15;;;36.40;35.90;;;;;;5051036;28;20078;-79
2021/07/14 12:04:02;;;;;;;13.90;5.68;;;36.40;35.80;;;;;;5069184;28;20066;-80
2021/07/14 12:06:48;;;;;;;12.35;5.25;;;36.40;36.00;;;;;;5069373;28;20822;-80
2021/07/14 12:09:13;;;;;;;15.68;5.13;;;36.50;35.60;;;;;;5051338;28;20051;-79
2021/07/14 12:11:53;;;;;;;13.07;5.68;;;36.40;35.70;;;;;;5050879;28;20020;-79
2021/07/14 12:14:20;;;;;;;13.27;5.07;;;36.30;36.50;;;;;;5069054;28;20024;-80
2021/07/14 12:16:48;;;;;;;14.88;5.90;;;36.50;36.60;;;;;;5050208;28;20370;-79
2021/07/14 12:19:34;;;;;;;15.63;5.07;;;36.70;35.20;;;;;;5050666;28;20040;-80
2021/07/14 12:22:13;;;;;;;19.90;5.45;;;36.80;36.00;;;;;;5067815;28;20096;-80
2021/07/14 12:24:41;;;;;;;22.98;5.40;;;36.80;35.70;;;;;;5051011;28;20090;-80
2021/07/14 12:27:13;;;;;;;19.13;5.80;;;36.90;35.00;;;;;;5068457;28;20021;-81
2021/07/14 12:29:40;;;;;;;11.52;5.13;;;37.00;34.30;;;;;;5050748;28;20027;-81
2021/07/14 12:32:07;;;;;;;11.15;5.32;;;37.20;34.10;;;;;;5050075;28;20120;-80
2021/07/14 12:34:34;;;;;;;12.93;5.05;;;37.10;34.80;;;;;;5050292;28;20024;-80
2021/07/14 12:37:01;;;;;;;14.20;5.07;;;37.00;34.80;;;;;;5068293;28;20132;-79
2021/07/14 12:39:32;;;;;;;14.13;5.50;;;36.70;35.40;;;;;;5050212;28;20052;-80
2021/07/14 12:42:01;;;;;;;26.35;5.47;;;36.70;35.00;;;;;;5050354;28;20466;-80
2021/07/14 12:44:27;;;;;;;14.30;5.78;;;36.90;34.60;;;;;;5068482;28;20063;-81
2021/07/14 12:46:53;;;;;;;18.30;5.25;;;36.90;34.70;;;;;;5067696;28;20074;-79
2021/07/14 12:49:22;;;;;;;11.77;5.53;;;36.80;35.40;;;;;;5050348;28;20032;-79
2021/07/14 12:52:04;;;;;;;21.85;5.28;;;36.60;35.90;;;;;;5068575;28;20058;-80
2021/07/14 12:54:31;;;;;;;9.57;5.15;;;36.40;35.30;;;;;;5050133;28;20028;-80